Time;durP1;ratioP1;P1;durP2;ratioP2;P2;SDS_P1;SDS_P2;PMS_P1;PMS_P2;Temp;Humidity;BMP_temperature;BMP_pressure;BME280_temperature;BME280_humidity;BME280_pressure;Samples;Min_cycle;Max_cycle;Signal;HPM_P1;HPM_P2
2022/02/22 00:00:00;;;;;;;0.95;0.30;;;3.40;99.90;;;;;;5034860;28;20514;-88
2022/02/22 00:02:27;;;;;;;0.25;0.20;;;3.40;99.90;;;;;;5036204;28;20057;-89
2022/02/22 00:04:53;;;;;;;0.80;0.30;;;3.50;99.90;;;;;;5035179;28;20053;-89
2022/02/22 00:07:20;;;;;;;0.93;0.50;;;3.50;99.90;;;;;;5035974;28;20584;-89
2022/02/22 00:09:47;;;;;;;1.30;0.30;;;3.50;99.90;;;;;;5036099;28;20136;-89
2022/02/22 00:12:14;;;;;;;1.55;0.30;;;3.50;99.90;;;;;;5035898;28;20140;-89
2022/02/22 00:14:43;;;;;;;0.98;0.20;;;3.50;99.90;;;;;;5034884;28;20045;-87
2022/02/22 00:17:10;;;;;;;0.38;0.20;;;3.50;99.90;;;;;;5034823;28;20060;-90
2022/02/22 00:19:37;;;;;;;1.88;0.30;;;3.50;99.90;;;;;;5034834;28;20054;-89
2022/02/22 00:22:04;;;;;;;0.40;0.20;;;3.50;99.90;;;;;;5035479;28;20057;-89
2022/02/22 00:24:30;;;;;;;0.68;0.15;;;3.60;99.90;;;;;;5034813;28;20051;-88
2022/02/22 00:26:57;;;;;;;1.10;0.20;;;3.50;99.90;;;;;;5035037;28;20057;-89
2022/02/22 00:29:24;;;;;;;0.77;0.25;;;3.50;99.90;;;;;;5034562;28;20049;-89
2022/02/22 00:31:51;;;;;;;0.20;0.10;;;3.60;99.90;;;;;;5034432;28;20049;-90
2022/02/22 00:34:18;;;;;;;0.98;0.40;;;3.60;99.90;;;;;;5035106;28;20064;-89
2022/02/22 00:36:47;;;;;;;1.10;0.10;;;3.60;99.90;;;;;;5038783;28;20107;-89
2022/02/22 00:39:14;;;;;;;0.40;0.20;;;3.60;99.90;;;;;;5035016;28;20091;-89
2022/02/22 00:41:41;;;;;;;0.20;0.20;;;3.60;99.90;;;;;;5034236;28;20108;-89
2022/02/22 00:44:08;;;;;;;1.27;0.50;;;3.60;99.90;;;;;;5035341;28;20089;-89
2022/02/22 00:46:35;;;;;;;1.85;0.52;;;3.60;99.90;;;;;;5034138;28;20057;-89
2022/02/22 00:49:02;;;;;;;0.57;0.20;;;3.60;99.90;;;;;;5033930;28;20053;-89
2022/02/22 00:51:29;;;;;;;1.20;0.40;;;3.60;99.90;;;;;;5034222;28;20437;-89
2022/02/22 00:53:56;;;;;;;0.20;0.20;;;3.60;99.90;;;;;;5034436;28;20520;-88
2022/02/22 00:56:23;;;;;;;1.27;0.40;;;3.60;99.90;;;;;;5035026;28;20046;-89
2022/02/22 00:58:49;;;;;;;3.67;0.40;;;3.60;99.90;;;;;;5034653;28;20421;-90
2022/02/22 01:01:17;;;;;;;3.60;0.80;;;3.60;99.90;;;;;;5033985;28;20049;-89
2022/02/22 01:03:44;;;;;;;5.28;0.60;;;3.50;99.90;;;;;;5034281;28;20057;-89
2022/02/22 01:06:11;;;;;;;5.85;0.70;;;3.60;99.90;;;;;;5036349;28;20148;-86
2022/02/22 01:08:39;;;;;;;2.50;0.70;;;3.60;99.90;;;;;;5033979;28;20557;-87
2022/02/22 01:11:06;;;;;;;5.68;0.90;;;3.60;99.90;;;;;;5033745;28;20053;-90
2022/02/22 01:13:33;;;;;;;1.98;0.70;;;3.60;99.90;;;;;;5034708;28;20053;-88
2022/02/22 01:16:01;;;;;;;8.50;1.10;;;3.50;99.90;;;;;;5033756;28;20045;-87
2022/02/22 01:18:28;;;;;;;8.32;1.00;;;3.60;99.90;;;;;;5034075;28;20050;-90
2022/02/22 01:20:55;;;;;;;3.67;1.00;;;3.60;99.90;;;;;;5033573;28;20049;-90
2022/02/22 01:23:21;;;;;;;3.45;1.13;;;3.60;99.90;;;;;;5037742;28;20108;-90
2022/02/22 01:25:50;;;;;;;6.78;0.90;;;3.70;99.90;;;;;;5033471;28;20045;-90
2022/02/22 01:28:17;;;;;;;6.63;1.25;;;3.70;99.90;;;;;;5033549;28;20140;-88
2022/02/22 01:30:44;;;;;;;3.70;0.80;;;3.70;99.90;;;;;;5033487;28;20141;-87
2022/02/22 01:33:11;;;;;;;5.93;1.00;;;3.70;99.90;;;;;;5034004;28;20573;-87
2022/02/22 01:35:40;;;;;;;4.18;1.00;;;3.80;99.90;;;;;;5033583;28;20529;-87
2022/02/22 01:38:07;;;;;;;3.55;0.47;;;3.80;99.90;;;;;;5034349;28;20517;-88
2022/02/22 01:40:34;;;;;;;2.55;0.60;;;3.80;99.90;;;;;;5033123;28;20576;-88
2022/02/22 01:43:01;;;;;;;8.50;0.90;;;3.80;99.90;;;;;;5033548;28;20045;-88
2022/02/22 01:45:28;;;;;;;6.40;1.15;;;3.80;99.90;;;;;;5033274;28;20045;-88
2022/02/22 01:47:54;;;;;;;6.47;1.00;;;3.80;99.90;;;;;;5033474;28;20055;-88
2022/02/22 01:50:21;;;;;;;4.88;0.85;;;3.80;99.90;;;;;;5034074;28;20535;-87
2022/02/22 01:52:48;;;;;;;4.40;0.65;;;3.80;99.90;;;;;;5034260;28;20060;-90
2022/02/22 01:55:15;;;;;;;2.72;0.73;;;3.80;99.90;;;;;;5033381;28;20139;-90
2022/02/22 01:57:43;;;;;;;4.53;0.80;;;3.90;99.90;;;;;;5033146;28;20049;-90
2022/02/22 02:00:11;;;;;;;6.35;1.17;;;4.00;99.90;;;;;;5033021;28;20061;-91
2022/02/22 02:02:39;;;;;;;1.75;0.45;;;4.00;99.90;;;;;;5033241;28;20055;-92
2022/02/22 02:05:07;;;;;;;4.15;0.57;;;4.10;99.90;;;;;;5032947;28;20136;-90
2022/02/22 02:07:34;;;;;;;3.47;1.10;;;4.10;99.90;;;;;;5032978;28;20092;-89
2022/02/22 02:10:01;;;;;;;2.63;0.70;;;4.10;99.90;;;;;;5032898;28;20132;-92
2022/02/22 02:12:35;;;;;;;6.32;0.88;;;4.20;99.90;;;;;;5033176;28;20053;-91
2022/02/22 02:15:03;;;;;;;4.43;1.13;;;4.20;99.90;;;;;;5033174;28;20585;-91
2022/02/22 02:17:31;;;;;;;5.60;1.30;;;4.20;99.90;;;;;;5033194;28;20049;-90
2022/02/22 02:19:58;;;;;;;5.53;1.08;;;4.20;99.90;;;;;;5033695;28;20049;-90
2022/02/22 02:22:25;;;;;;;3.83;0.75;;;4.20;99.90;;;;;;5032824;28;20468;-88
2022/02/22 02:24:52;;;;;;;6.70;1.00;;;4.30;99.90;;;;;;5033074;28;20091;-88
2022/02/22 02:27:19;;;;;;;6.13;0.80;;;4.30;99.90;;;;;;5032908;28;20048;-89
2022/02/22 02:29:46;;;;;;;5.25;0.90;;;4.20;99.90;;;;;;5032676;28;20051;-88
2022/02/22 02:32:12;;;;;;;3.80;0.70;;;4.20;99.90;;;;;;5032796;28;20136;-89
2022/02/22 02:34:39;;;;;;;3.75;1.27;;;4.20;99.90;;;;;;5032514;28;20063;-89
2022/02/22 02:37:06;;;;;;;4.13;1.00;;;4.20;99.90;;;;;;5032642;28;20417;-92
2022/02/22 02:39:33;;;;;;;1.98;0.57;;;4.10;99.90;;;;;;5033112;28;20052;-92
2022/02/22 02:42:01;;;;;;;4.20;0.80;;;4.20;99.90;;;;;;5032356;28;20055;-92
2022/02/22 02:44:28;;;;;;;6.53;1.15;;;4.20;99.90;;;;;;5032656;28;20053;-91
2022/02/22 02:46:55;;;;;;;2.45;0.60;;;4.30;99.90;;;;;;5035938;28;20136;-89
2022/02/22 02:49:23;;;;;;;3.97;0.70;;;4.40;99.90;;;;;;5036495;28;20478;-89
2022/02/22 02:51:50;;;;;;;5.38;1.55;;;4.40;99.90;;;;;;5036778;28;20140;-88
2022/02/22 02:54:17;;;;;;;4.03;0.90;;;4.40;99.90;;;;;;5036711;28;20053;-89
2022/02/22 02:56:44;;;;;;;7.28;1.35;;;4.30;99.90;;;;;;5036778;28;20045;-90
2022/02/22 02:59:11;;;;;;;4.93;1.27;;;4.30;99.90;;;;;;5036091;28;20060;-88
2022/02/22 03:01:41;;;;;;;10.07;1.55;;;4.20;99.90;;;;;;5037536;28;20148;-93
2022/02/22 03:04:10;;;;;;;12.38;1.70;;;4.20;99.90;;;;;;5037025;28;20140;-89
2022/02/22 03:06:37;;;;;;;6.63;1.05;;;4.20;99.90;;;;;;5038119;28;20053;-89
2022/02/22 03:09:04;;;;;;;10.23;1.10;;;4.20;99.90;;;;;;5036715;28;20045;-93
2022/02/22 03:11:32;;;;;;;8.30;1.40;;;4.20;99.90;;;;;;5036172;28;20045;-90
2022/02/22 03:13:59;;;;;;;7.72;1.88;;;4.20;99.90;;;;;;5036192;28;20057;-88
2022/02/22 03:16:26;;;;;;;9.77;1.40;;;4.10;99.90;;;;;;5036227;28;20081;-91
2022/02/22 03:18:53;;;;;;;8.30;1.65;;;4.10;99.90;;;;;;5036152;28;20055;-86
2022/02/22 03:21:20;;;;;;;20.10;2.55;;;3.90;99.90;;;;;;5035859;28;20049;-88
2022/02/22 03:23:47;;;;;;;5.65;0.90;;;3.50;99.90;;;;;;5036184;28;20052;-86
2022/02/22 03:26:14;;;;;;;7.57;1.30;;;3.40;99.90;;;;;;5036734;28;20053;-86
2022/02/22 03:28:41;;;;;;;9.65;1.35;;;3.20;99.90;;;;;;5035619;28;20089;-86
2022/02/22 03:31:08;;;;;;;4.88;0.95;;;3.00;99.90;;;;;;5035707;28;20504;-87
2022/02/22 03:33:35;;;;;;;15.50;2.00;;;3.00;99.90;;;;;;5035543;28;20136;-86
2022/02/22 03:36:03;;;;;;;16.08;2.15;;;2.80;99.90;;;;;;5035751;28;20055;-89
2022/02/22 03:38:30;;;;;;;10.23;1.65;;;2.70;99.90;;;;;;5035739;28;20053;-86
2022/02/22 03:40:57;;;;;;;18.88;2.63;;;2.60;99.90;;;;;;5036369;28;20050;-86
2022/02/22 03:43:24;;;;;;;21.00;2.13;;;2.50;99.90;;;;;;5035608;28;20092;-86
2022/02/22 03:45:51;;;;;;;11.65;2.63;;;2.40;99.90;;;;;;5035608;28;20045;-88
2022/02/22 03:48:18;;;;;;;18.48;3.10;;;2.30;99.90;;;;;;5035421;28;20058;-89
2022/02/22 03:50:44;;;;;;;15.32;2.30;;;2.20;99.90;;;;;;5035363;28;20060;-86
2022/02/22 03:53:12;;;;;;;9.77;1.85;;;2.10;99.90;;;;;;5036309;28;20069;-89
2022/02/22 03:55:44;;;;;;;13.35;2.03;;;2.00;99.90;;;;;;5035307;28;20161;-89
2022/02/22 03:58:11;;;;;;;9.68;2.10;;;2.00;99.90;;;;;;5034720;28;20331;-89
2022/02/22 04:00:39;;;;;;;14.63;2.08;;;1.90;99.90;;;;;;5035178;28;20426;-89
2022/02/22 04:03:08;;;;;;;10.95;2.05;;;1.80;99.90;;;;;;5036026;28;20057;-89
2022/02/22 04:05:36;;;;;;;15.73;2.47;;;1.70;99.90;;;;;;5035199;28;20612;-89
2022/02/22 04:08:03;;;;;;;18.45;2.40;;;1.80;99.90;;;;;;5035087;28;20135;-87
2022/02/22 04:10:30;;;;;;;21.20;3.58;;;1.80;99.90;;;;;;5035029;28;20049;-90
2022/02/22 04:12:58;;;;;;;19.02;2.83;;;1.80;99.90;;;;;;5035837;28;20053;-90
2022/02/22 04:15:25;;;;;;;21.92;2.85;;;1.70;99.90;;;;;;5035178;28;20092;-89
2022/02/22 04:17:52;;;;;;;17.13;2.25;;;1.70;99.90;;;;;;5036290;28;20081;-87
2022/02/22 04:20:22;;;;;;;14.23;3.10;;;1.60;99.90;;;;;;5037296;28;20140;-87
2022/02/22 04:22:49;;;;;;;22.45;2.92;;;1.50;99.90;;;;;;5035181;28;20508;-87
2022/02/22 04:25:15;;;;;;;20.52;2.70;;;1.50;99.90;;;;;;5036458;28;20053;-89
2022/02/22 04:27:42;;;;;;;12.30;2.17;;;1.50;99.90;;;;;;5035018;28;20140;-90
2022/02/22 04:30:10;;;;;;;17.95;2.78;;;1.50;99.90;;;;;;5034837;28;20049;-90
2022/02/22 04:32:37;;;;;;;17.73;2.47;;;1.50;99.90;;;;;;5035016;28;20088;-87
2022/02/22 04:35:04;;;;;;;12.23;2.65;;;1.50;99.90;;;;;;5035230;28;20073;-87
2022/02/22 04:37:32;;;;;;;24.98;3.20;;;1.60;99.90;;;;;;5034749;28;20136;-89
2022/02/22 04:40:00;;;;;;;23.55;3.17;;;1.60;99.90;;;;;;5035037;28;20409;-90
2022/02/22 04:42:27;;;;;;;16.15;2.80;;;1.50;99.90;;;;;;5034888;28;20057;-87
2022/02/22 04:44:54;;;;;;;23.02;3.20;;;1.50;99.90;;;;;;5035773;28;20045;-87
2022/02/22 04:47:21;;;;;;;24.33;3.42;;;1.60;99.90;;;;;;5034759;28;20049;-87
2022/02/22 04:49:48;;;;;;;22.00;3.63;;;1.60;99.90;;;;;;5035828;28;20504;-87
2022/02/22 04:52:15;;;;;;;18.48;3.53;;;1.70;99.90;;;;;;5035298;28;20552;-87
2022/02/22 04:54:42;;;;;;;22.10;4.55;;;1.80;99.90;;;;;;5034500;28;20048;-87
2022/02/22 04:57:09;;;;;;;34.15;6.28;;;1.90;99.90;;;;;;5034571;28;20049;-87
2022/02/22 04:59:35;;;;;;;32.80;6.97;;;1.90;99.90;;;;;;5034408;28;20502;-90
2022/02/22 05:02:02;;;;;;;18.95;3.58;;;1.90;99.90;;;;;;5035184;28;20406;-89
2022/02/22 05:04:29;;;;;;;25.83;3.28;;;1.90;99.90;;;;;;5034240;28;20049;-87
2022/02/22 05:06:56;;;;;;;19.67;3.70;;;1.90;99.90;;;;;;5033994;28;20056;-86
2022/02/22 05:09:23;;;;;;;28.52;4.80;;;1.90;99.90;;;;;;5034170;28;20045;-87
2022/02/22 05:11:50;;;;;;;32.53;3.80;;;1.90;99.90;;;;;;5034192;28;20538;-87
2022/02/22 05:14:17;;;;;;;23.20;3.30;;;2.00;99.90;;;;;;5034019;28;20416;-87
2022/02/22 05:16:44;;;;;;;25.60;3.60;;;2.00;99.90;;;;;;5034901;28;20136;-87
2022/02/22 05:19:10;;;;;;;27.10;4.18;;;2.10;99.90;;;;;;5033687;28;20093;-86
2022/02/22 05:21:38;;;;;;;26.67;4.03;;;2.10;99.90;;;;;;5033624;28;20053;-86
2022/02/22 05:24:05;;;;;;;20.20;4.07;;;2.10;99.90;;;;;;5034668;28;20075;-86
2022/02/22 05:26:33;;;;;;;27.80;4.05;;;2.10;99.90;;;;;;5033180;28;20049;-86
2022/02/22 05:28:59;;;;;;;33.70;4.03;;;2.10;99.90;;;;;;5033552;28;20049;-87
2022/02/22 05:31:26;;;;;;;27.35;3.92;;;2.00;99.90;;;;;;5033583;28;20056;-86
2022/02/22 05:33:54;;;;;;;24.95;4.00;;;2.10;99.90;;;;;;5033943;28;20151;-87
2022/02/22 05:36:21;;;;;;;36.60;5.00;;;2.10;99.90;;;;;;5033806;28;20053;-86
2022/02/22 05:38:48;;;;;;;39.30;4.13;;;2.10;99.90;;;;;;5033491;28;20080;-86
2022/02/22 05:41:17;;;;;;;30.08;3.70;;;2.10;99.90;;;;;;5033127;28;20462;-86
2022/02/22 05:43:45;;;;;;;33.63;3.65;;;2.10;99.90;;;;;;5034057;28;20053;-86
2022/02/22 05:46:13;;;;;;;32.78;3.83;;;2.10;99.90;;;;;;5032396;28;20132;-85
2022/02/22 05:48:41;;;;;;;40.28;4.50;;;2.10;99.90;;;;;;5033907;28;20053;-86
2022/02/22 05:51:08;;;;;;;25.63;4.22;;;2.00;99.90;;;;;;5032977;28;20073;-86
2022/02/22 05:53:36;;;;;;;25.70;3.25;;;2.10;99.90;;;;;;5033190;28;20144;-85
2022/02/22 05:56:03;;;;;;;33.78;3.40;;;2.10;99.90;;;;;;5033018;28;20052;-85
2022/02/22 05:58:30;;;;;;;21.77;3.55;;;2.20;99.90;;;;;;5032682;28;20505;-85
2022/02/22 06:00:57;;;;;;;23.63;3.70;;;2.20;99.90;;;;;;5032904;28;20045;-85
2022/02/22 06:03:24;;;;;;;32.55;3.55;;;2.10;99.90;;;;;;5033939;28;20092;-86
2022/02/22 06:05:51;;;;;;;24.70;4.05;;;2.10;99.90;;;;;;5033152;28;20049;-85
2022/02/22 06:08:19;;;;;;;20.75;3.60;;;2.00;99.90;;;;;;5032797;28;20052;-85
2022/02/22 06:10:48;;;;;;;21.85;3.13;;;2.10;99.90;;;;;;5033862;28;20045;-85
2022/02/22 06:13:18;;;;;;;22.70;3.42;;;2.00;99.90;;;;;;5032629;28;20049;-85
2022/02/22 06:15:45;;;;;;;20.15;2.50;;;2.00;99.90;;;;;;5033908;28;20049;-86
2022/02/22 06:18:12;;;;;;;24.25;3.70;;;1.90;99.90;;;;;;5032778;28;20046;-85
2022/02/22 06:20:39;;;;;;;18.17;3.03;;;1.90;99.90;;;;;;5032482;28;20049;-85
2022/02/22 06:23:06;;;;;;;18.75;3.10;;;1.90;99.90;;;;;;5032574;28;20053;-86
2022/02/22 06:25:34;;;;;;;16.77;2.80;;;1.90;99.90;;;;;;5032510;28;20099;-85
2022/02/22 06:28:01;;;;;;;20.52;2.65;;;1.80;99.90;;;;;;5032574;28;20057;-85
2022/02/22 06:30:33;;;;;;;20.98;3.33;;;1.70;99.90;;;;;;5032630;28;20049;-86
2022/02/22 06:33:00;;;;;;;18.25;3.30;;;1.70;99.90;;;;;;5032505;28;20052;-86
2022/02/22 06:35:27;;;;;;;14.00;2.58;;;1.80;99.90;;;;;;5033548;28;20128;-87
2022/02/22 06:37:54;;;;;;;24.63;3.42;;;1.80;99.90;;;;;;5033441;28;20056;-86
2022/02/22 06:40:21;;;;;;;18.42;2.70;;;1.80;99.90;;;;;;5033424;28;20053;-86
2022/02/22 06:42:51;;;;;;;18.08;2.70;;;1.80;99.90;;;;;;5033636;28;20053;-86
2022/02/22 06:45:18;;;;;;;16.27;2.33;;;1.70;99.90;;;;;;5032324;28;20071;-86
2022/02/22 06:47:44;;;;;;;19.48;3.03;;;1.50;99.90;;;;;;5033132;28;20079;-86
2022/02/22 06:50:13;;;;;;;33.83;3.20;;;1.40;99.90;;;;;;5033047;28;20046;-86
2022/02/22 06:52:40;;;;;;;18.13;3.10;;;1.40;99.90;;;;;;5033054;28;20482;-86
2022/02/22 06:55:12;;;;;;;25.77;5.35;;;1.40;99.90;;;;;;5032273;28;20046;-86
2022/02/22 06:57:40;;;;;;;28.70;8.55;;;1.40;99.90;;;;;;5032320;28;20053;-86
2022/02/22 07:00:10;;;;;;;41.35;9.18;;;1.40;99.90;;;;;;5032913;28;20053;-87
2022/02/22 07:02:39;;;;;;;26.63;4.78;;;1.40;99.90;;;;;;5032399;28;20391;-87
2022/02/22 07:05:07;;;;;;;15.85;3.63;;;1.40;99.90;;;;;;5032578;28;20045;-86
2022/02/22 07:07:34;;;;;;;15.52;3.13;;;1.30;99.90;;;;;;5033274;28;20049;-86
2022/02/22 07:10:02;;;;;;;27.52;4.05;;;1.30;99.90;;;;;;5032581;28;20050;-86
2022/02/22 07:12:29;;;;;;;25.48;3.92;;;1.30;99.90;;;;;;5032136;28;20045;-86
2022/02/22 07:14:55;;;;;;;28.23;3.42;;;1.40;99.90;;;;;;5033231;28;20109;-86
2022/02/22 07:17:23;;;;;;;27.15;5.28;;;1.40;99.90;;;;;;5031988;28;20144;-85
2022/02/22 07:19:51;;;;;;;22.88;4.47;;;1.50;99.90;;;;;;5032230;28;20049;-86
2022/02/22 07:22:18;;;;;;;19.20;4.22;;;1.70;99.90;;;;;;5032038;28;20057;-86
2022/02/22 07:24:45;;;;;;;20.67;4.63;;;1.80;99.90;;;;;;5032271;28;20056;-86
2022/02/22 07:27:12;;;;;;;25.25;4.30;;;2.00;99.90;;;;;;5032250;28;20050;-86
2022/02/22 07:29:39;;;;;;;25.67;5.65;;;2.30;99.90;;;;;;5033200;28;20520;-86
2022/02/22 07:32:06;;;;;;;30.17;5.13;;;2.50;99.90;;;;;;5034596;28;20382;-86
2022/02/22 07:34:33;;;;;;;18.90;4.60;;;2.40;99.90;;;;;;5035954;28;20049;-86
2022/02/22 07:37:00;;;;;;;23.33;4.82;;;2.40;99.90;;;;;;5036161;28;20490;-86
2022/02/22 07:39:27;;;;;;;15.20;4.13;;;2.40;99.90;;;;;;5036045;28;20049;-86
2022/02/22 07:41:54;;;;;;;23.42;4.03;;;2.50;99.90;;;;;;5035444;28;20390;-86
2022/02/22 07:44:21;;;;;;;19.17;4.85;;;2.60;99.90;;;;;;5035928;28;20080;-86
2022/02/22 07:46:47;;;;;;;27.42;9.48;;;2.80;99.90;;;;;;5035457;28;20399;-86
2022/02/22 07:49:15;;;;;;;19.85;4.57;;;3.00;99.90;;;;;;5035518;28;20049;-86
2022/02/22 07:51:43;;;;;;;13.05;4.78;;;3.20;99.90;;;;;;5036607;28;20132;-86
2022/02/22 07:54:10;;;;;;;24.65;5.22;;;3.20;99.90;;;;;;5035392;28;20081;-86
2022/02/22 07:56:37;;;;;;;19.67;3.70;;;3.30;99.90;;;;;;5035293;28;20056;-87
2022/02/22 07:59:04;;;;;;;21.30;4.10;;;3.30;99.90;;;;;;5035373;28;20056;-87
2022/02/22 08:01:34;;;;;;;20.95;4.30;;;3.20;99.90;;;;;;5036059;28;20049;-87
2022/02/22 08:04:01;;;;;;;16.83;3.28;;;3.20;99.90;;;;;;5038679;28;20107;-86
2022/02/22 08:06:28;;;;;;;17.30;3.72;;;3.10;99.90;;;;;;5035649;28;20051;-87
2022/02/22 08:08:55;;;;;;;25.42;4.80;;;3.20;99.90;;;;;;5036769;28;20490;-87
2022/02/22 08:11:25;;;;;;;20.48;8.82;;;3.30;99.90;;;;;;5038186;28;20045;-87
2022/02/22 08:13:53;;;;;;;16.63;4.35;;;4.30;99.90;;;;;;5056915;28;20060;-87
2022/02/22 08:16:20;;;;;;;16.00;3.50;;;6.20;99.90;;;;;;5057305;28;20045;-88
2022/02/22 08:18:48;;;;;;;14.10;3.33;;;7.60;99.90;;;;;;5056235;28;20070;-88
2022/02/22 08:21:16;;;;;;;14.25;2.92;;;8.30;99.90;;;;;;5056193;28;20462;-88
2022/02/22 08:23:43;;;;;;;10.90;2.15;;;8.90;99.90;;;;;;5056083;28;20059;-88
2022/02/22 08:26:10;;;;;;;13.98;2.22;;;9.30;99.90;;;;;;5056863;28;20052;-88
2022/02/22 08:28:37;;;;;;;14.50;2.60;;;9.40;99.90;;;;;;5057048;28;20079;-88
2022/02/22 08:31:04;;;;;;;10.80;2.85;;;9.90;99.90;;;;;;5056650;28;20551;-89
2022/02/22 08:33:31;;;;;;;12.50;3.38;;;11.30;99.90;;;;;;5057247;28;20505;-89
2022/02/22 08:35:58;;;;;;;14.40;3.28;;;11.70;99.90;;;;;;5054543;28;20053;-89
2022/02/22 08:38:25;;;;;;;17.17;3.03;;;11.00;99.90;;;;;;5055657;28;20481;-89
2022/02/22 08:40:52;;;;;;;15.50;3.03;;;10.00;99.90;;;;;;5054010;28;20049;-89
2022/02/22 08:43:19;;;;;;;17.67;3.92;;;9.00;99.90;;;;;;5053112;28;20053;-89
2022/02/22 08:45:47;;;;;;;13.55;2.22;;;8.20;99.90;;;;;;5054980;28;20053;-89
2022/02/22 08:48:14;;;;;;;10.27;2.65;;;7.30;99.90;;;;;;5053755;28;20075;-90
2022/02/22 08:50:43;;;;;;;11.55;2.40;;;6.90;99.90;;;;;;5054348;28;20048;-91
2022/02/22 08:53:11;;;;;;;10.98;1.83;;;7.90;99.90;;;;;;5054424;28;20071;-92
2022/02/22 08:55:38;;;;;;;9.50;1.83;;;7.70;99.90;;;;;;5055300;28;20053;-91
2022/02/22 08:58:05;;;;;;;9.80;2.28;;;7.80;99.90;;;;;;5054395;28;20045;-91
2022/02/22 09:00:32;;;;;;;11.52;2.08;;;7.70;99.90;;;;;;5054025;28;20095;-90
2022/02/22 09:03:03;;;;;;;12.55;2.22;;;7.20;99.90;;;;;;5055008;28;20528;-90
2022/02/22 09:05:36;;;;;;;7.38;1.95;;;7.40;99.90;;;;;;5051449;28;20485;-90
2022/02/22 09:08:05;;;;;;;11.95;2.20;;;7.10;99.90;;;;;;5052169;28;20135;-90
2022/02/22 09:10:32;;;;;;;9.85;2.38;;;7.00;99.90;;;;;;5055041;28;20049;-92
2022/02/22 09:12:59;;;;;;;9.00;2.10;;;6.90;99.90;;;;;;5055092;28;20099;-91
2022/02/22 09:15:31;;;;;;;12.23;2.17;;;6.90;99.90;;;;;;5055492;28;20409;-90
2022/02/22 09:18:00;;;;;;;11.00;2.22;;;6.70;99.90;;;;;;5059431;28;20108;-90
2022/02/22 09:20:27;;;;;;;9.68;2.17;;;7.00;99.90;;;;;;5054639;28;20052;-91
2022/02/22 09:22:54;;;;;;;11.50;2.22;;;7.00;99.90;;;;;;5049041;28;20056;-91
2022/02/22 09:25:21;;;;;;;8.68;2.38;;;6.90;99.90;;;;;;5033489;28;20132;-90
2022/02/22 09:27:48;;;;;;;12.77;2.25;;;6.80;99.90;;;;;;5033751;28;20053;-91
2022/02/22 09:30:18;;;;;;;7.50;1.67;;;6.80;99.90;;;;;;5034749;28;20497;-91
2022/02/22 09:32:48;;;;;;;14.18;2.08;;;6.90;99.90;;;;;;5034449;28;20045;-90
2022/02/22 09:35:18;;;;;;;17.50;3.08;;;6.90;99.90;;;;;;5034086;28;20049;-90
2022/02/22 09:37:45;;;;;;;11.48;2.40;;;6.90;99.90;;;;;;5034267;28;20064;-90
2022/02/22 09:40:13;;;;;;;13.57;1.90;;;7.00;99.90;;;;;;5033549;28;20303;-91
2022/02/22 09:42:42;;;;;;;16.23;3.50;;;7.50;99.90;;;;;;5034263;28;20049;-90
2022/02/22 09:45:13;;;;;;;12.27;3.38;;;7.70;99.90;;;;;;5033677;28;20042;-90
2022/02/22 09:47:41;;;;;;;24.58;4.10;;;8.10;99.90;;;;;;5033925;28;20049;-91
2022/02/22 09:50:10;;;;;;;10.15;1.67;;;8.50;99.90;;;;;;5033525;28;20103;-91
2022/02/22 09:52:37;;;;;;;10.13;2.08;;;8.60;99.90;;;;;;5033410;28;20521;-91
2022/02/22 09:55:05;;;;;;;9.65;2.08;;;8.60;99.90;;;;;;5033284;28;20061;-91
2022/02/22 09:57:33;;;;;;;13.35;2.40;;;8.50;99.90;;;;;;5032846;28;20083;-91
2022/02/22 10:00:00;;;;;;;9.65;2.00;;;8.50;99.90;;;;;;5032528;28;20053;-91
2022/02/22 10:02:37;;;;;;;10.50;1.92;;;8.40;99.90;;;;;;5032716;28;20113;-91
2022/02/22 10:05:22;;;;;;;11.38;1.80;;;8.30;99.90;;;;;;5033118;28;20406;-91
2022/02/22 10:07:51;;;;;;;6.80;1.83;;;8.10;99.90;;;;;;5032862;28;20079;-90
2022/02/22 10:10:21;;;;;;;9.98;2.47;;;7.60;99.90;;;;;;5047481;28;20140;-90
2022/02/22 10:12:57;;;;;;;11.20;2.10;;;7.30;99.90;;;;;;5052992;28;20049;-91
2022/02/22 10:15:24;;;;;;;7.97;2.13;;;7.40;99.90;;;;;;5052836;28;20049;-91
2022/02/22 10:17:51;;;;;;;9.32;2.35;;;7.30;99.90;;;;;;5051832;28;20075;-90
2022/02/22 10:20:21;;;;;;;13.05;2.38;;;7.50;99.90;;;;;;5052684;28;20055;-90
2022/02/22 10:22:57;;;;;;;9.50;2.60;;;7.70;99.90;;;;;;5052749;28;20094;-90
2022/02/22 10:25:25;;;;;;;18.88;3.55;;;7.70;99.90;;;;;;5052888;28;20049;-90
2022/02/22 10:27:55;;;;;;;8.57;2.00;;;7.80;99.90;;;;;;5053591;28;20053;-91
2022/02/22 10:30:24;;;;;;;10.32;2.30;;;8.20;99.90;;;;;;5054075;28;20045;-90
2022/02/22 10:32:51;;;;;;;8.27;1.73;;;8.30;99.90;;;;;;5055385;28;20068;-90
2022/02/22 10:35:28;;;;;;;11.15;2.30;;;9.10;99.90;;;;;;5052767;28;20589;-90
2022/02/22 10:37:55;;;;;;;8.38;2.13;;;10.60;99.90;;;;;;5053197;28;20045;-90
2022/02/22 10:40:33;;;;;;;7.38;2.50;;;11.60;99.90;;;;;;5053289;28;20049;-92
2022/02/22 10:43:00;;;;;;;7.68;1.88;;;12.30;96.60;;;;;;5052633;28;20049;-90
2022/02/22 10:45:27;;;;;;;11.25;2.45;;;12.30;95.70;;;;;;5052983;28;20072;-88
2022/02/22 10:47:55;;;;;;;12.18;2.08;;;12.30;94.40;;;;;;5053159;28;20135;-90
2022/02/22 10:50:25;;;;;;;8.45;2.22;;;11.90;94.60;;;;;;5053413;28;20550;-90
2022/02/22 10:52:52;;;;;;;8.98;2.40;;;12.10;92.80;;;;;;5052983;28;20053;-91
2022/02/22 10:55:20;;;;;;;10.60;1.90;;;11.40;93.80;;;;;;5053096;28;20065;-92
2022/02/22 10:57:48;;;;;;;11.15;2.33;;;10.60;96.60;;;;;;5053100;28;20122;-91
2022/02/22 11:00:16;;;;;;;13.35;3.05;;;10.00;97.20;;;;;;5052913;28;20056;-92
2022/02/22 11:02:45;;;;;;;10.88;2.30;;;9.20;99.90;;;;;;5053210;28;20053;-92
2022/02/22 11:05:32;;;;;;;7.00;2.15;;;8.60;99.90;;;;;;5053650;28;20045;-92
2022/02/22 11:07:59;;;;;;;8.30;2.30;;;8.40;99.90;;;;;;5058608;28;20057;-92
2022/02/22 11:10:28;;;;;;;17.30;2.55;;;8.40;99.90;;;;;;5060139;28;20398;-91
2022/02/22 11:13:01;;;;;;;19.90;2.85;;;8.60;99.90;;;;;;5057784;28;20049;-92
2022/02/22 11:15:37;;;;;;;14.07;2.95;;;8.30;99.90;;;;;;5059396;28;20052;-93
2022/02/22 11:18:16;;;;;;;19.08;2.42;;;8.50;99.90;;;;;;5056757;28;20064;-90
2022/02/22 11:20:43;;;;;;;12.30;2.15;;;8.60;99.90;;;;;;5057374;28;20083;-93
2022/02/22 11:23:15;;;;;;;12.35;2.33;;;9.40;99.90;;;;;;5059663;28;20562;-91
2022/02/22 11:25:44;;;;;;;13.25;2.75;;;9.50;99.90;;;;;;5060657;28;20048;-93
2022/02/22 11:28:12;;;;;;;19.27;2.65;;;9.10;99.90;;;;;;5058263;28;20053;-91
2022/02/22 11:30:40;;;;;;;12.20;2.55;;;8.80;99.90;;;;;;5055951;28;20057;-91
2022/02/22 11:33:12;;;;;;;10.52;2.58;;;8.90;99.90;;;;;;5056645;28;20049;-91
2022/02/22 11:35:49;;;;;;;12.55;2.80;;;9.10;99.90;;;;;;5056417;28;20053;-91
2022/02/22 11:38:17;;;;;;;13.10;2.35;;;9.00;99.90;;;;;;5056408;28;20060;-92
2022/02/22 11:40:48;;;;;;;11.45;2.72;;;9.00;99.90;;;;;;5056348;28;20080;-91
2022/02/22 11:43:18;;;;;;;15.88;2.95;;;8.80;99.90;;;;;;5057583;28;20052;-91
2022/02/22 11:45:47;;;;;;;13.75;3.28;;;8.80;99.90;;;;;;5058004;28;20140;-91
2022/02/22 11:48:20;;;;;;;18.15;4.32;;;8.70;99.90;;;;;;5059264;28;20069;-90
2022/02/22 11:50:50;;;;;;;24.88;9.98;;;8.80;99.90;;;;;;5055574;28;20071;-91
2022/02/22 11:53:22;;;;;;;17.23;2.83;;;8.90;99.90;;;;;;5056085;28;20045;-91
2022/02/22 11:55:50;;;;;;;18.00;3.13;;;8.90;99.90;;;;;;5057535;28;20118;-91
2022/02/22 11:58:22;;;;;;;19.60;3.38;;;9.00;99.90;;;;;;5059689;28;20060;-91
2022/02/22 12:00:54;;;;;;;18.25;2.72;;;8.80;99.90;;;;;;5060162;28;20071;-90
2022/02/22 12:03:22;;;;;;;9.10;2.20;;;8.80;99.90;;;;;;5062082;28;20056;-90
2022/02/22 12:05:52;;;;;;;10.95;2.40;;;8.60;99.90;;;;;;5058190;28;20105;-91
2022/02/22 12:08:27;;;;;;;11.23;2.22;;;8.40;99.90;;;;;;5055841;28;20052;-91
2022/02/22 12:11:00;;;;;;;11.88;2.67;;;8.50;99.90;;;;;;5056228;28;20079;-93
2022/02/22 12:13:43;;;;;;;12.65;2.53;;;8.50;99.90;;;;;;5061145;28;20067;-92
2022/02/22 12:16:18;;;;;;;11.35;2.35;;;8.60;99.90;;;;;;5060315;28;20052;-92
2022/02/22 12:18:51;;;;;;;12.38;3.30;;;8.70;99.90;;;;;;5059154;28;20127;-90
2022/02/22 12:21:20;;;;;;;14.00;2.83;;;8.90;99.90;;;;;;5058281;28;20053;-93
2022/02/22 12:23:47;;;;;;;11.70;2.47;;;9.40;99.90;;;;;;5054998;28;20504;-90
2022/02/22 12:26:18;;;;;;;7.60;2.05;;;9.70;99.90;;;;;;5056061;28;20498;-91
2022/02/22 12:28:49;;;;;;;11.35;2.00;;;10.00;98.90;;;;;;5056302;28;20591;-93
2022/02/22 12:31:36;;;;;;;11.82;2.40;;;10.00;97.80;;;;;;5058066;28;20532;-90
2022/02/22 12:34:09;;;;;;;12.18;2.55;;;10.10;98.60;;;;;;5062133;28;20049;-91
2022/02/22 12:36:38;;;;;;;11.05;2.47;;;9.90;96.70;;;;;;5054846;28;20128;-91
2022/02/22 12:39:11;;;;;;;9.65;2.20;;;9.90;98.10;;;;;;5060575;28;20045;-91
2022/02/22 12:41:41;;;;;;;11.02;2.53;;;9.50;96.90;;;;;;5060336;28;20057;-94
2022/02/22 12:44:10;;;;;;;11.77;2.20;;;9.30;99.00;;;;;;5058331;28;20140;-91
2022/02/22 12:46:38;;;;;;;11.73;2.03;;;9.30;98.40;;;;;;5055971;28;20049;-91
2022/02/22 12:49:07;;;;;;;14.00;2.08;;;9.20;99.00;;;;;;5056116;28;20143;-92
2022/02/22 12:51:35;;;;;;;15.02;2.92;;;9.00;99.50;;;;;;5054538;28;20462;-90
2022/02/22 12:54:10;;;;;;;12.13;2.75;;;8.90;99.90;;;;;;5054886;28;20554;-90